Auberry, California
Current Conditions -  °F | °C
As of 6:53 AM on Sunday 23 Nov 2014 (Local Time) from KFAT Reporting Station
Overcast Overcast  
Wind Chill: 10°   Ceiling: 11000
Heat Index: 10°   Visibility: 10mi
Dew Point:   Wind: 5mph
Humidity: 86%   Direction: 290°WNW
Pressure: 30.25"   Gusts: NA
Location:  37.08°N, 119.49°W
Report Text: KFAT 231453Z 29004KT 10SM SCT008 OVC110 10/08 A3025 RMK AO2 SLP241 MTNS OBSC DSNT N-E-S T01000078 51019
Loading
Personal Weather Stations






























Interactive Weather Map New forecast layout! Learn more

10-Day Weather Forecast

Advertisements
Track Severe Weather on mobile